地図

経路データ

SID SEASON NUMBER BASIN SUBBASIN NAME ISO_TIME NATURE LAT LON WMO_WIND WMO_PRES WMO_AGENCY TRACK_TYPE DIST2LAND LANDFALL IFLAG USA_AGENCY USA_ATCF_ID USA_LAT USA_LON USA_RECORD USA_STATUS USA_WIND USA_PRES USA_SSHS USA_R34_NE USA_R34_SE USA_R34_SW USA_R34_NW USA_R50_NE USA_R50_SE USA_R50_SW USA_R50_NW USA_R64_NE USA_R64_SE USA_R64_SW USA_R64_NW USA_POCI USA_ROCI USA_RMW USA_EYE TOKYO_LAT TOKYO_LON TOKYO_GRADE TOKYO_WIND TOKYO_PRES TOKYO_R50_DIR TOKYO_R50_LONG TOKYO_R50_SHORT TOKYO_R30_DIR TOKYO_R30_LONG TOKYO_R30_SHORT TOKYO_LAND CMA_LAT CMA_LON CMA_CAT CMA_WIND CMA_PRES HKO_LAT HKO_LON HKO_CAT HKO_WIND HKO_PRES NEWDELHI_LAT NEWDELHI_LON NEWDELHI_GRADE NEWDELHI_WIND NEWDELHI_PRES NEWDELHI_CI NEWDELHI_DP NEWDELHI_POCI REUNION_LAT REUNION_LON REUNION_TYPE REUNION_WIND REUNION_PRES REUNION_TNUM REUNION_CI REUNION_RMW REUNION_R34_NE REUNION_R34_SE REUNION_R34_SW REUNION_R34_NW REUNION_R50_NE REUNION_R50_SE REUNION_R50_SW REUNION_R50_NW REUNION_R64_NE REUNION_R64_SE REUNION_R64_SW REUNION_R64_NW BOM_LAT BOM_LON BOM_TYPE BOM_WIND BOM_PRES BOM_TNUM BOM_CI BOM_RMW BOM_R34_NE BOM_R34_SE BOM_R34_SW BOM_R34_NW BOM_R50_NE BOM_R50_SE BOM_R50_SW BOM_R50_NW BOM_R64_NE BOM_R64_SE BOM_R64_SW BOM_R64_NW BOM_ROCI BOM_POCI BOM_EYE BOM_POS_METHOD BOM_PRES_METHOD NADI_LAT NADI_LON NADI_CAT NADI_WIND NADI_PRES WELLINGTON_LAT WELLINGTON_LON WELLINGTON_WIND WELLINGTON_PRES DS824_LAT DS824_LON DS824_STAGE DS824_WIND DS824_PRES TD9636_LAT TD9636_LON TD9636_STAGE TD9636_WIND TD9636_PRES TD9635_LAT TD9635_LON TD9635_WIND TD9635_PRES TD9635_ROCI NEUMANN_LAT NEUMANN_LON NEUMANN_CLASS NEUMANN_WIND NEUMANN_PRES MLC_LAT MLC_LON MLC_CLASS MLC_WIND MLC_PRES USA_GUST BOM_GUST BOM_GUST_PER REUNION_GUST REUNION_GUST_PER USA_SEAHGT USA_SEARAD_NE USA_SEARAD_SE USA_SEARAD_SW USA_SEARAD_NW STORM_SPEED STORM_DIR
1886270N15089 1886 36 NI BB NOT_NAMED 1886-09-27 00:00:00 TS 15.4000 89.2000 main 539 539 _________O____ -1 15.4000 89.2000 TC 30 2 285
1886270N15089 1886 36 NI BB NOT_NAMED 1886-09-27 03:00:00 TS 15.4267 89.0917 main 550 550 _________PO___ -1 15.4400 89.0375 TC 30 15.4000 89.2000 1 3 291
1886270N15089 1886 36 NI BB NOT_NAMED 1886-09-27 06:00:00 TS 15.4895 88.9583 main 559 558 _________OP___ -1 15.5000 88.9000 TC 30 15.4738 89.0456 1 3 302
1886270N15089 1886 36 NI BB NOT_NAMED 1886-09-27 09:00:00 TS 15.5734 88.8441 main 554 539 _________PP___ -1 15.5925 88.8000 TC 30 15.5480 88.9029 1 3 309
1886270N15089 1886 36 NI BB NOT_NAMED 1886-09-27 12:00:00 TS 15.6616 88.7419 main 539 534 _________OP___ -1 15.7000 88.7000 TC 30 15.6232 88.7838 1 3 310
1886270N15089 1886 36 NI BB NOT_NAMED 1886-09-27 15:00:00 TS 15.7500 88.6250 main 524 519 _________PO___ -1 15.8000 88.5500 TC 30 15.7000 88.7000 1 3 311
1886270N15089 1886 36 NI BB NOT_NAMED 1886-09-27 18:00:00 TS 15.8400 88.5258 main 519 509 _________OP___ -1 15.9000 88.4000 TC 30 15.7800 88.6517 1 2 321
1886270N15089 1886 36 NI BB NOT_NAMED 1886-09-27 21:00:00 TS 15.9230 88.4757 main 509 490 _________PP___ -1 15.9772 88.3597 TC 30 15.8688 88.5916 1 3 316
1886270N15089 1886 36 NI BB NOT_NAMED 1886-09-28 00:00:00 TS 16.0367 88.3304 main 490 457 _________OP___ -1 16.1000 88.2000 TC 30 15.9733 88.4608 1 6 302
1886270N15089 1886 36 NI BB NOT_NAMED 1886-09-28 03:00:00 TS 16.2251 87.9664 main 457 408 _________PO___ -1 16.3501 87.7328 TC 30 16.1000 88.2000 1 10 295
1886270N15089 1886 36 NI BB NOT_NAMED 1886-09-28 06:00:00 TS 16.4393 87.4187 main 400 338 _________OP___ -1 16.6000 87.1000 TC 30 16.2786 87.7374 1 12 289
1886270N15089 1886 36 NI BB NOT_NAMED 1886-09-28 09:00:00 TS 16.6018 86.8005 main 338 284 _________PP___ -1 16.7300 86.4573 TC 30 16.4736 87.1437 1 13 283
1886270N15089 1886 36 NI BB NOT_NAMED 1886-09-28 12:00:00 TS 16.7283 86.1390 main 277 224 _________OP___ -1 16.8000 85.8000 TC 30 16.6566 86.4780 1 13 280
1886270N15089 1886 36 NI BB NOT_NAMED 1886-09-28 15:00:00 TS 16.8324 85.4962 main 224 178 _________PO___ -1 16.8648 85.1925 TC 30 16.8000 85.8000 1 12 277
1886270N15089 1886 36 NI BB NOT_NAMED 1886-09-28 18:00:00 TS 16.8864 84.8612 main 178 130 _________OP___ -1 16.9000 84.6000 TC 30 16.8729 85.1223 1 12 273
1886270N15089 1886 36 NI BB NOT_NAMED 1886-09-28 21:00:00 TS 16.9057 84.1947 main 130 94 _________PP___ -1 16.9078 83.9324 TC 30 16.9036 84.4569 1 12 271
1886270N15089 1886 36 NI BB NOT_NAMED 1886-09-29 00:00:00 TS 16.9037 83.6315 main 89 74 _________OP___ -1 16.9000 83.4000 TC 30 16.9073 83.8631 1 9 270
1886270N15089 1886 36 NI BB NOT_NAMED 1886-09-29 03:00:00 TS 16.8998 83.2875 main 74 64 _________PO___ -1 16.8997 83.1750 TC 30 16.9000 83.4000 1 5 270
1886270N15089 1886 36 NI BB NOT_NAMED 1886-09-29 06:00:00 TS 16.9030 83.1192 main 64 59 _________OP___ -1 16.9000 83.1000 TC 30 16.9061 83.1384 1 3 271
1886270N15089 1886 36 NI BB NOT_NAMED 1886-09-29 09:00:00 TS 16.9031 83.0037 main 59 53 _________PP___ -1 16.9000 83.0000 TC 30 16.9062 83.0075 1 2 270
1886270N15089 1886 36 NI BB NOT_NAMED 1886-09-29 12:00:00 TS 16.9017 82.9239 main 53 42 _________OP___ -1 16.9000 82.9000 TC 30 16.9033 82.9478 1 2 269
1886270N15089 1886 36 NI BB NOT_NAMED 1886-09-29 15:00:00 TS 16.9000 82.8250 main 42 31 _________PO___ -1 16.9000 82.7500 TC 30 16.9000 82.9000 1 2 269
1886270N15089 1886 36 NI BB NOT_NAMED 1886-09-29 18:00:00 TS 16.8998 82.7139 main 31 31 _________OP___ -1 16.9000 82.6000 TC 30 16.8996 82.8278 1 2 270
1886270N15089 1886 36 NI BB NOT_NAMED 1886-09-29 21:00:00 TS 16.8995 82.6462 main 21 10 _________PP___ -1 16.8998 82.5450 TC 30 16.8993 82.7475 1 2 270
1886270N15089 1886 36 NI BB NOT_NAMED 1886-09-30 00:00:00 TS 16.8997 82.5092 main 10 0 _________OP___ -1 16.9000 82.4000 TC 30 16.8994 82.6184 1 4 270
1886270N15089 1886 36 NI BB NOT_NAMED 1886-09-30 03:00:00 TS 16.9001 82.2012 main 0 0 _________PO___ -1 16.9002 82.0025 TC 30 16.9000 82.4000 1 7 270
1886270N15089 1886 36 NI BB NOT_NAMED 1886-09-30 06:00:00 TS 16.9002 81.7697 main 0 0 _________OP___ -1 16.9000 81.5000 TC 30 16.9005 82.0394 1 8 270
1886270N15089 1886 36 NI BB NOT_NAMED 1886-09-30 09:00:00 TS 16.9003 81.3162 main 0 0 _________PP___ -1 16.9000 81.0425 TC 30 16.9007 81.5899 1 9 270
1886270N15089 1886 36 NI BB NOT_NAMED 1886-09-30 12:00:00 TS 16.9002 80.8478 main 0 0 _________OP___ -1 16.9000 80.6000 TC 30 16.9004 81.0956 1 9 270
1886270N15089 1886 36 NI BB NOT_NAMED 1886-09-30 15:00:00 TS 16.8999 80.4000 main 0 0 _________PO___ -1 16.8998 80.2000 TC 30 16.9000 80.6000 1 8 270
1886270N15089 1886 36 NI BB NOT_NAMED 1886-09-30 18:00:00 TS 16.8999 79.9778 main 0 0 _________OP___ -1 16.9000 79.8000 TC 30 16.8998 80.1556 1 8 270
1886270N15089 1886 36 NI BB NOT_NAMED 1886-09-30 21:00:00 TS 16.8999 79.5313 main 0 0 _________PP___ -1 16.9000 79.3425 TC 30 16.8998 79.7200 1 8 270
1886270N15089 1886 36 NI BB NOT_NAMED 1886-10-01 00:00:00 TS 16.8999 79.0997 main 0 0 _________OP___ -1 16.9000 78.9000 TC 30 16.8999 79.2994 1 8 270
1886270N15089 1886 36 NI BB NOT_NAMED 1886-10-01 03:00:00 TS 16.8999 78.7175 main 0 0 _________PO___ -1 16.8999 78.5350 TC 30 16.9000 78.9000 1 7 270
1886270N15089 1886 36 NI BB NOT_NAMED 1886-10-01 06:00:00 TS 16.8998 78.3642 main 0 0 _________OP___ -1 16.9000 78.2000 TC 30 16.8996 78.5285 1 7 270
1886270N15089 1886 36 NI BB NOT_NAMED 1886-10-01 09:00:00 TS 16.8997 78.0138 main 0 0 _________PP___ -1 16.8999 77.8500 TC 30 16.8995 78.1775 1 7 270
1886270N15089 1886 36 NI AS NOT_NAMED 1886-10-01 12:00:00 TS 16.8998 77.6689 main 0 0 _________OP___ -1 16.9000 77.5000 TC 30 16.8997 77.8378 1 7 270
1886270N15089 1886 36 NI AS NOT_NAMED 1886-10-01 15:00:00 TS 16.9000 77.3250 main 0 0 _________PO___ -1 16.8999 77.1500 TC 30 16.9000 77.5000 1 6 270
1886270N15089 1886 36 NI AS NOT_NAMED 1886-10-01 18:00:00 TS 16.9002 77.0037 main 0 0 _________OP___ -1 16.9000 76.8000 TC 30 16.9004 77.1566 1 6 270
1886270N15089 1886 36 NI AS NOT_NAMED 1886-10-01 21:00:00 TS 16.9004 76.6645 main 0 0 _________PP___ -1 16.9001 76.4500 TC 30 16.9006 76.8075 1 6 270
1886270N15089 1886 36 NI AS NOT_NAMED 1886-10-02 00:00:00 TS 16.9004 76.3365 main 0 0 _________OP___ -1 16.9000 76.1000 TC 30 16.9005 76.4547 1 5 270
1886270N15089 1886 36 NI AS NOT_NAMED 1886-10-02 03:00:00 NR 16.9000 76.1000 main 0 __________O___ -1 TC 16.9000 76.1000 1 5 270

IBTrACS Databaseについて

本データベースは、米国NOAAが公開する1842年以降の世界の熱帯低気圧のベストトラックデータアーカイブInternational Best Track Archive for Climate Stewardship (IBTrACS)を、ウェブで閲覧しやすい形式に変換したものです。

最終更新日:2021-11-26